Time;durP1;ratioP1;P1;durP2;ratioP2;P2;SDS_P1;SDS_P2;PMS_P1;PMS_P2;Temp;Humidity;BMP_temperature;BMP_pressure;BME280_temperature;BME280_humidity;BME280_pressure;Samples;Min_cycle;Max_cycle;Signal;HPM_P1;HPM_P2
2023/09/08 00:01:45;;;;;;;20.35;14.43;;;;;;;;;;5013373;27;93210;-61
2023/09/08 00:04:12;;;;;;;22.60;20.83;;;;;;;;;;5012680;27;93444;-61
2023/09/08 00:06:38;;;;;;;17.63;16.05;;;;;;;;;;5012206;27;92450;-61
2023/09/08 00:09:04;;;;;;;18.13;16.52;;;;;;;;;;5013604;27;94315;-62
2023/09/08 00:11:31;;;;;;;14.38;13.02;;;;;;;;;;5013066;27;94465;-60
2023/09/08 00:13:57;;;;;;;17.35;15.15;;;;;;;;;;5016587;27;91710;-61
2023/09/08 00:16:23;;;;;;;14.32;13.07;;;;;;;;;;5021621;27;93556;-61
2023/09/08 00:18:50;;;;;;;22.33;20.48;;;;;;;;;;5013169;27;93415;-61
2023/09/08 00:21:16;;;;;;;14.38;12.98;;;;;;;;;;5014688;27;94926;-60
2023/09/08 00:23:43;;;;;;;21.95;19.85;;;;;;;;;;5012934;27;93434;-61
2023/09/08 00:26:09;;;;;;;16.10;14.57;;;;;;;;;;5012635;27;95360;-61
2023/09/08 00:28:36;;;;;;;27.52;24.98;;;;;;;;;;5017411;27;93235;-61
2023/09/08 00:31:02;;;;;;;17.35;15.73;;;;;;;;;;5012573;27;93545;-60
2023/09/08 00:33:28;;;;;;;18.33;16.02;;;;;;;;;;5012542;27;92383;-60
2023/09/08 00:35:57;;;;;;;17.77;16.23;;;;;;;;;;5013426;27;93261;-61
2023/09/08 00:38:23;;;;;;;18.73;16.58;;;;;;;;;;5012875;27;92697;-60
2023/09/08 00:40:50;;;;;;;17.08;15.45;;;;;;;;;;5012452;27;93385;-61
2023/09/08 00:43:17;;;;;;;20.23;18.55;;;;;;;;;;5015764;27;94295;-60
2023/09/08 00:45:45;;;;;;;19.08;17.25;;;;;;;;;;5014951;27;94781;-61
2023/09/08 00:48:12;;;;;;;14.13;12.82;;;;;;;;;;5016201;27;95522;-61
2023/09/08 00:50:39;;;;;;;18.38;16.67;;;;;;;;;;5012205;27;93236;-61
2023/09/08 00:53:06;;;;;;;19.23;16.65;;;;;;;;;;5013072;27;92849;-61
2023/09/08 00:55:33;;;;;;;19.00;16.73;;;;;;;;;;5018553;27;93214;-60
2023/09/08 00:58:01;;;;;;;15.82;13.40;;;;;;;;;;5011662;27;93378;-60
2023/09/08 01:00:27;;;;;;;17.33;15.73;;;;;;;;;;5012607;27;92402;-60
2023/09/08 01:02:54;;;;;;;19.00;12.68;;;;;;;;;;5012963;27;93223;-60
2023/09/08 01:05:21;;;;;;;18.63;16.75;;;;;;;;;;5014871;27;93426;-60
2023/09/08 01:07:48;;;;;;;17.05;15.50;;;;;;;;;;5012444;27;93275;-60
2023/09/08 01:10:15;;;;;;;12.80;11.65;;;;;;;;;;5010253;27;96098;-61
2023/09/08 01:12:41;;;;;;;20.92;18.88;;;;;;;;;;5012371;28;95289;-60
2023/09/08 01:15:08;;;;;;;15.65;14.25;;;;;;;;;;5011859;27;93232;-60
2023/09/08 01:17:34;;;;;;;15.73;14.13;;;;;;;;;;5016428;27;94451;-61
2023/09/08 01:20:07;;;;;;;14.68;13.43;;;;;;;;;;5016062;27;92466;-60
2023/09/08 01:22:44;;;;;;;22.13;20.10;;;;;;;;;;5012128;27;93153;-61
2023/09/08 01:25:10;;;;;;;16.27;14.73;;;;;;;;;;5012112;27;93708;-61
2023/09/08 01:27:37;;;;;;;20.02;18.02;;;;;;;;;;5015001;27;91866;-61
2023/09/08 01:30:05;;;;;;;23.35;21.10;;;;;;;;;;5015925;27;93739;-61
2023/09/08 01:32:32;;;;;;;17.35;15.80;;;;;;;;;;5011704;27;92406;-60
2023/09/08 01:34:59;;;;;;;20.92;18.88;;;;;;;;;;5010719;27;94958;-61
2023/09/08 01:37:26;;;;;;;20.35;18.63;;;;;;;;;;5011423;27;93483;-60
2023/09/08 01:39:52;;;;;;;17.77;15.93;;;;;;;;;;5020607;27;93322;-61
2023/09/08 01:42:19;;;;;;;14.40;13.05;;;;;;;;;;5011987;27;92298;-61
2023/09/08 01:44:45;;;;;;;13.20;11.90;;;;;;;;;;5010526;27;92654;-61
2023/09/08 01:47:11;;;;;;;18.63;16.70;;;;;;;;;;5015369;27;92423;-60
2023/09/08 01:49:38;;;;;;;17.05;15.50;;;;;;;;;;5023474;27;94206;-60
2023/09/08 01:52:04;;;;;;;19.58;17.85;;;;;;;;;;5012176;27;91819;-61
2023/09/08 01:54:31;;;;;;;16.50;14.95;;;;;;;;;;5011535;27;92833;-60
2023/09/08 01:56:57;;;;;;;18.88;17.25;;;;;;;;;;5015466;27;94711;-63
2023/09/08 01:59:23;;;;;;;15.75;14.43;;;;;;;;;;5010150;27;94808;-62
2023/09/08 02:01:50;;;;;;;19.98;18.02;;;;;;;;;;5011684;27;95528;-62
2023/09/08 02:04:16;;;;;;;15.63;12.50;;;;;;;;;;5010868;27;93428;-62
2023/09/08 02:06:43;;;;;;;17.10;15.70;;;;;;;;;;5011332;27;92769;-62
2023/09/08 02:09:11;;;;;;;17.92;16.48;;;;;;;;;;5022724;27;94201;-62
2023/09/08 02:11:38;;;;;;;16.45;15.00;;;;;;;;;;5014355;27;92666;-62
2023/09/08 02:14:04;;;;;;;18.73;15.13;;;;;;;;;;5015097;27;93216;-62
2023/09/08 02:16:30;;;;;;;22.77;20.95;;;;;;;;;;5020255;27;93654;-61
2023/09/08 02:18:57;;;;;;;19.75;18.15;;;;;;;;;;5014952;27;92450;-62
2023/09/08 02:21:23;;;;;;;21.80;19.88;;;;;;;;;;5014809;27;94261;-61
2023/09/08 02:23:50;;;;;;;21.88;19.73;;;;;;;;;;5014830;27;96950;-61
2023/09/08 02:26:16;;;;;;;16.95;15.50;;;;;;;;;;5014561;27;92445;-61
2023/09/08 02:28:43;;;;;;;18.67;17.13;;;;;;;;;;5014681;27;94338;-62
2023/09/08 02:31:09;;;;;;;24.70;18.08;;;;;;;;;;5016835;27;93286;-61
2023/09/08 02:33:35;;;;;;;15.73;12.23;;;;;;;;;;5018652;27;93152;-62
2023/09/08 02:36:08;;;;;;;14.15;12.88;;;;;;;;;;5014227;27;93481;-62
2023/09/08 02:38:34;;;;;;;20.60;18.73;;;;;;;;;;5013761;27;92872;-61
2023/09/08 02:41:01;;;;;;;22.23;14.30;;;;;;;;;;5015108;27;93335;-62
2023/09/08 02:43:28;;;;;;;15.00;13.60;;;;;;;;;;5013998;27;93417;-62
2023/09/08 02:45:54;;;;;;;13.77;12.48;;;;;;;;;;5013817;27;92572;-62
2023/09/08 02:48:21;;;;;;;21.75;16.50;;;;;;;;;;5013931;27;94809;-62
2023/09/08 02:50:47;;;;;;;23.17;21.05;;;;;;;;;;5014530;27;94291;-62
2023/09/08 02:53:14;;;;;;;18.13;16.70;;;;;;;;;;5017364;27;92408;-62
2023/09/08 02:55:40;;;;;;;17.98;16.33;;;;;;;;;;5017698;27;93401;-62
2023/09/08 02:58:06;;;;;;;25.48;23.42;;;;;;;;;;5014299;27;92597;-61
2023/09/08 03:00:33;;;;;;;20.02;18.20;;;;;;;;;;5014531;27;93186;-61
2023/09/08 03:02:59;;;;;;;25.05;22.52;;;;;;;;;;5022585;27;94376;-62
2023/09/08 03:05:26;;;;;;;27.38;25.23;;;;;;;;;;5022643;28;92170;-61
2023/09/08 03:07:53;;;;;;;24.27;22.08;;;;;;;;;;5014767;27;92921;-62
2023/09/08 03:10:19;;;;;;;32.25;29.55;;;;;;;;;;5014044;27;93638;-62
2023/09/08 03:12:45;;;;;;;31.13;28.17;;;;;;;;;;5012013;27;94832;-62
2023/09/08 03:15:12;;;;;;;22.88;21.00;;;;;;;;;;5016927;27;95865;-62
2023/09/08 03:17:38;;;;;;;26.50;24.05;;;;;;;;;;5014739;27;92645;-61
2023/09/08 03:20:07;;;;;;;26.70;24.35;;;;;;;;;;5012614;27;93477;-62
2023/09/08 03:22:34;;;;;;;24.73;22.38;;;;;;;;;;5013713;27;93418;-62
2023/09/08 03:25:00;;;;;;;23.70;21.48;;;;;;;;;;5013855;27;92459;-62
2023/09/08 03:27:26;;;;;;;30.48;27.65;;;;;;;;;;5013408;27;93373;-62
2023/09/08 03:29:53;;;;;;;21.08;19.35;;;;;;;;;;5014878;27;92646;-62
2023/09/08 03:32:19;;;;;;;23.13;21.35;;;;;;;;;;5013438;27;92674;-61
2023/09/08 03:34:46;;;;;;;28.42;26.25;;;;;;;;;;5017636;27;94257;-61
2023/09/08 03:37:12;;;;;;;24.05;22.17;;;;;;;;;;5016953;27;96904;-61
2023/09/08 03:39:39;;;;;;;33.75;30.50;;;;;;;;;;5016390;27;95647;-61
2023/09/08 03:42:05;;;;;;;29.38;27.02;;;;;;;;;;5017080;27;93576;-61
2023/09/08 03:44:31;;;;;;;24.55;22.67;;;;;;;;;;5013283;27;92444;-61
2023/09/08 03:46:58;;;;;;;29.55;27.30;;;;;;;;;;5015092;27;92383;-61
2023/09/08 03:49:29;;;;;;;23.83;21.85;;;;;;;;;;5017918;27;94417;-61
2023/09/08 03:51:55;;;;;;;31.02;28.23;;;;;;;;;;5013424;27;92758;-61
2023/09/08 03:54:21;;;;;;;27.88;25.58;;;;;;;;;;5013516;27;93104;-61
2023/09/08 03:56:48;;;;;;;28.17;26.17;;;;;;;;;;5012706;27;93413;-61
2023/09/08 03:59:14;;;;;;;31.73;29.27;;;;;;;;;;5020917;27;92338;-61
2023/09/08 04:01:40;;;;;;;29.48;27.13;;;;;;;;;;5011321;27;95836;-61
2023/09/08 04:04:07;;;;;;;31.05;28.70;;;;;;;;;;5012983;27;92835;-61
2023/09/08 04:06:33;;;;;;;30.40;27.70;;;;;;;;;;5012570;27;93245;-61
2023/09/08 04:09:00;;;;;;;36.55;33.47;;;;;;;;;;5026183;27;93382;-61
2023/09/08 04:11:26;;;;;;;33.35;31.00;;;;;;;;;;5013198;27;92991;-61
2023/09/08 04:13:53;;;;;;;40.67;37.22;;;;;;;;;;5017212;27;94214;-61
2023/09/08 04:16:19;;;;;;;39.03;35.83;;;;;;;;;;5016787;27;94404;-61
2023/09/08 04:18:45;;;;;;;30.88;28.38;;;;;;;;;;5026877;27;91769;-61
2023/09/08 04:21:12;;;;;;;33.55;31.08;;;;;;;;;;5012785;27;94334;-61
2023/09/08 04:23:39;;;;;;;35.05;32.40;;;;;;;;;;5019523;27;92391;-61
2023/09/08 04:26:05;;;;;;;33.03;30.17;;;;;;;;;;5015191;27;94959;-61
2023/09/08 04:28:31;;;;;;;34.95;32.03;;;;;;;;;;5013097;27;93440;-61
2023/09/08 04:30:59;;;;;;;36.42;33.05;;;;;;;;;;5019369;27;92539;-60
2023/09/08 04:33:25;;;;;;;36.58;33.72;;;;;;;;;;5013869;27;93081;-62
2023/09/08 04:35:52;;;;;;;35.42;32.78;;;;;;;;;;5020786;27;93456;-61
2023/09/08 04:38:18;;;;;;;47.63;43.42;;;;;;;;;;5012273;27;92408;-61
2023/09/08 04:40:45;;;;;;;55.25;50.65;;;;;;;;;;5014767;27;93233;-61
2023/09/08 04:43:12;;;;;;;42.13;38.92;;;;;;;;;;5012934;27;91831;-61
2023/09/08 04:45:38;;;;;;;47.40;43.40;;;;;;;;;;5015590;27;92533;-62
2023/09/08 04:48:05;;;;;;;49.42;45.28;;;;;;;;;;5013974;27;94092;-61
2023/09/08 04:50:31;;;;;;;39.55;36.17;;;;;;;;;;5011557;27;94839;-61
2023/09/08 04:52:58;;;;;;;43.50;39.30;;;;;;;;;;5012317;27;95559;-61
2023/09/08 04:55:24;;;;;;;38.58;35.38;;;;;;;;;;5012671;27;92394;-61
2023/09/08 04:57:50;;;;;;;32.70;30.08;;;;;;;;;;5011849;27;92473;-62
2023/09/08 05:00:17;;;;;;;33.72;30.98;;;;;;;;;;5012486;27;93177;-61
2023/09/08 05:02:44;;;;;;;35.97;33.15;;;;;;;;;;5019002;27;93443;-61
2023/09/08 05:05:11;;;;;;;31.40;28.80;;;;;;;;;;5011545;27;93103;-61
2023/09/08 05:07:37;;;;;;;36.55;33.45;;;;;;;;;;5012917;27;93834;-61
2023/09/08 05:10:04;;;;;;;30.33;27.83;;;;;;;;;;5012334;27;92555;-61
2023/09/08 05:12:30;;;;;;;38.90;35.85;;;;;;;;;;5011583;27;93358;-61
2023/09/08 05:15:00;;;;;;;38.00;34.85;;;;;;;;;;5009614;27;97234;-61
2023/09/08 05:17:26;;;;;;;37.28;34.33;;;;;;;;;;5013167;27;92750;-61
2023/09/08 05:19:52;;;;;;;31.00;28.35;;;;;;;;;;5012045;27;93239;-61
2023/09/08 05:22:19;;;;;;;41.63;38.47;;;;;;;;;;5013812;27;93426;-61
2023/09/08 05:24:45;;;;;;;31.65;28.77;;;;;;;;;;5014351;27;92505;-61
2023/09/08 05:27:11;;;;;;;27.33;24.88;;;;;;;;;;5011127;27;93947;-61
2023/09/08 05:29:38;;;;;;;36.30;33.47;;;;;;;;;;5011826;27;92542;-62
2023/09/08 05:32:04;;;;;;;34.60;31.85;;;;;;;;;;5012119;27;93202;-61
2023/09/08 05:34:31;;;;;;;32.00;29.25;;;;;;;;;;5010979;27;93556;-61
2023/09/08 05:36:57;;;;;;;33.67;30.77;;;;;;;;;;5011287;27;92459;-62
2023/09/08 05:39:24;;;;;;;41.00;37.83;;;;;;;;;;5010847;27;94998;-61
2023/09/08 05:41:50;;;;;;;40.70;37.08;;;;;;;;;;5011832;27;93220;-61
2023/09/08 05:44:16;;;;;;;46.88;43.28;;;;;;;;;;5014745;27;92506;-61
2023/09/08 05:46:43;;;;;;;44.05;40.53;;;;;;;;;;5019110;27;94847;-61
2023/09/08 05:49:09;;;;;;;48.17;44.58;;;;;;;;;;5015070;27;92805;-60
2023/09/08 05:51:36;;;;;;;41.53;38.17;;;;;;;;;;5014849;27;92438;-61
2023/09/08 05:54:03;;;;;;;43.67;40.33;;;;;;;;;;5014482;27;93423;-60
2023/09/08 05:56:30;;;;;;;33.95;30.70;;;;;;;;;;5015788;27;91857;-59
2023/09/08 05:58:57;;;;;;;29.83;27.48;;;;;;;;;;5013376;27;92711;-61
2023/09/08 06:01:24;;;;;;;29.98;27.27;;;;;;;;;;5018339;27;92601;-61
2023/09/08 06:03:50;;;;;;;46.53;42.88;;;;;;;;;;5017246;27;94920;-61
2023/09/08 06:06:17;;;;;;;34.40;31.45;;;;;;;;;;5017402;27;95573;-62
2023/09/08 06:08:43;;;;;;;30.58;27.77;;;;;;;;;;5012559;27;92515;-61
2023/09/08 06:11:09;;;;;;;28.70;23.23;;;;;;;;;;5015368;27;94213;-62
2023/09/08 06:13:36;;;;;;;25.50;23.42;;;;;;;;;;5018798;27;93421;-62
2023/09/08 06:16:02;;;;;;;27.90;25.08;;;;;;;;;;5019734;27;92585;-62
2023/09/08 06:18:31;;;;;;;22.05;20.08;;;;;;;;;;5018860;27;93201;-61
2023/09/08 06:20:58;;;;;;;29.52;27.02;;;;;;;;;;5014963;27;93705;-60
2023/09/08 06:23:25;;;;;;;33.22;29.98;;;;;;;;;;5017782;27;92437;-62
2023/09/08 06:25:57;;;;;;;28.33;25.67;;;;;;;;;;5014626;27;92865;-61
2023/09/08 06:28:23;;;;;;;26.45;23.98;;;;;;;;;;5019840;27;96922;-65
2023/09/08 06:30:49;;;;;;;25.10;22.77;;;;;;;;;;5014142;27;95461;-62
2023/09/08 06:33:16;;;;;;;21.75;19.33;;;;;;;;;;5014407;27;93448;-62
2023/09/08 06:35:43;;;;;;;19.90;18.02;;;;;;;;;;5014329;27;92432;-62
2023/09/08 06:38:09;;;;;;;21.42;19.48;;;;;;;;;;5014222;27;93082;-61
2023/09/08 06:40:35;;;;;;;21.40;16.67;;;;;;;;;;5014712;27;93384;-61
2023/09/08 06:43:02;;;;;;;21.15;13.77;;;;;;;;;;5014382;27;92514;-62
2023/09/08 06:45:29;;;;;;;33.30;16.40;;;;;;;;;;5018151;27;93288;-62
2023/09/08 06:47:55;;;;;;;17.77;14.20;;;;;;;;;;5026239;27;93351;-61
2023/09/08 06:50:22;;;;;;;25.33;15.52;;;;;;;;;;5019376;27;92796;-61
2023/09/08 06:52:49;;;;;;;17.10;13.82;;;;;;;;;;5012001;27;96880;-61
2023/09/08 06:55:16;;;;;;;24.02;13.60;;;;;;;;;;5032417;27;93163;-62
2023/09/08 06:57:43;;;;;;;16.98;12.77;;;;;;;;;;5017643;27;94166;-61
2023/09/08 07:00:11;;;;;;;22.80;14.23;;;;;;;;;;5013833;27;93410;-61
2023/09/08 07:02:38;;;;;;;14.63;10.93;;;;;;;;;;5014066;27;92505;-62
2023/09/08 07:05:08;;;;;;;21.70;11.85;;;;;;;;;;5018135;27;93214;-61
2023/09/08 07:07:35;;;;;;;14.30;11.75;;;;;;;;;;5013542;27;92582;-62
2023/09/08 07:10:04;;;;;;;16.83;11.70;;;;;;;;;;5017866;27;91776;-61
2023/09/08 07:12:31;;;;;;;22.20;11.90;;;;;;;;;;5016341;27;92693;-61
2023/09/08 07:14:59;;;;;;;15.43;10.98;;;;;;;;;;5014224;27;92383;-62
2023/09/08 07:17:26;;;;;;;18.50;11.35;;;;;;;;;;5018306;27;94917;-62
2023/09/08 07:19:52;;;;;;;13.70;10.77;;;;;;;;;;5014043;27;93365;-61
2023/09/08 07:22:18;;;;;;;13.77;11.00;;;;;;;;;;5017955;27;93050;-61
2023/09/08 07:24:45;;;;;;;12.52;10.52;;;;;;;;;;5016792;27;92547;-61
2023/09/08 07:27:14;;;;;;;12.07;10.88;;;;;;;;;;5013336;27;93580;-61
2023/09/08 07:29:41;;;;;;;14.45;10.35;;;;;;;;;;5013572;27;92649;-61
2023/09/08 07:32:07;;;;;;;22.38;9.75;;;;;;;;;;5013139;27;93181;-61
2023/09/08 07:34:34;;;;;;;13.23;9.55;;;;;;;;;;5017712;27;92876;-61
2023/09/08 07:37:01;;;;;;;17.15;9.40;;;;;;;;;;5018680;27;92560;-61
2023/09/08 07:39:27;;;;;;;11.63;9.48;;;;;;;;;;5013252;27;92792;-61
2023/09/08 07:41:56;;;;;;;15.60;9.65;;;;;;;;;;5012876;27;94797;-61
2023/09/08 07:44:26;;;;;;;14.27;10.40;;;;;;;;;;5013310;27;95526;-62
2023/09/08 07:46:55;;;;;;;14.93;10.48;;;;;;;;;;5015257;27;93600;-62
2023/09/08 07:49:21;;;;;;;15.93;9.63;;;;;;;;;;5017335;27;92545;-62
2023/09/08 07:51:47;;;;;;;15.65;9.80;;;;;;;;;;5013337;27;92546;-61
2023/09/08 07:54:14;;;;;;;12.73;9.93;;;;;;;;;;5018121;27;93417;-62
2023/09/08 07:56:40;;;;;;;13.88;9.57;;;;;;;;;;5017003;27;92393;-61
2023/09/08 07:59:07;;;;;;;16.40;9.50;;;;;;;;;;5014163;27;92676;-61
2023/09/08 08:01:33;;;;;;;14.02;9.18;;;;;;;;;;5013193;27;92393;-61
2023/09/08 08:04:03;;;;;;;12.25;8.80;;;;;;;;;;5014108;27;93190;-61
2023/09/08 08:06:30;;;;;;;12.30;8.48;;;;;;;;;;5015662;27;95923;-61
2023/09/08 08:08:56;;;;;;;12.50;8.52;;;;;;;;;;5013771;27;92521;-61
2023/09/08 08:11:25;;;;;;;15.30;8.30;;;;;;;;;;5013783;27;94830;-60
2023/09/08 08:13:51;;;;;;;12.98;7.63;;;;;;;;;;5012954;27;93445;-61
2023/09/08 08:16:20;;;;;;;12.82;8.68;;;;;;;;;;5020841;27;92323;-61
2023/09/08 08:18:46;;;;;;;11.80;9.05;;;;;;;;;;5013784;27;93432;-61
2023/09/08 08:21:13;;;;;;;15.40;9.00;;;;;;;;;;5017582;27;92404;-61
2023/09/08 08:23:40;;;;;;;11.52;8.52;;;;;;;;;;5017708;27;94154;-60
2023/09/08 08:26:06;;;;;;;11.35;8.60;;;;;;;;;;5013698;27;93162;-60
2023/09/08 08:28:33;;;;;;;13.90;7.95;;;;;;;;;;5014476;27;92413;-60
2023/09/08 08:31:00;;;;;;;15.00;8.57;;;;;;;;;;5017962;27;95081;-61
2023/09/08 08:33:27;;;;;;;19.42;8.13;;;;;;;;;;5013224;27;92626;-60
2023/09/08 08:35:53;;;;;;;11.48;8.23;;;;;;;;;;5013792;27;92550;-61
2023/09/08 08:38:20;;;;;;;9.90;7.95;;;;;;;;;;5015926;27;94194;-60
2023/09/08 08:40:46;;;;;;;12.55;7.80;;;;;;;;;;5017975;27;93069;-60
2023/09/08 08:43:12;;;;;;;12.52;7.60;;;;;;;;;;5013204;27;93134;-60
2023/09/08 08:45:39;;;;;;;15.75;7.60;;;;;;;;;;5012782;27;93266;-61
2023/09/08 08:48:07;;;;;;;12.27;7.20;;;;;;;;;;5020032;27;91771;-61
2023/09/08 08:50:34;;;;;;;12.43;7.95;;;;;;;;;;5012844;27;92614;-60
2023/09/08 08:53:02;;;;;;;13.32;7.57;;;;;;;;;;5016416;27;92538;-61
2023/09/08 08:55:29;;;;;;;16.25;7.68;;;;;;;;;;5010227;27;95653;-61
2023/09/08 08:58:01;;;;;;;10.95;7.18;;;;;;;;;;5012752;27;95989;-61
2023/09/08 09:00:27;;;;;;;11.25;7.00;;;;;;;;;;5020433;27;93445;-61
2023/09/08 09:02:54;;;;;;;8.73;6.72;;;;;;;;;;5017110;27;93063;-61
2023/09/08 09:05:37;;;;;;;12.52;7.05;;;;;;;;;;5013185;27;93418;-61
2023/09/08 09:08:04;;;;;;;10.60;6.78;;;;;;;;;;5012462;27;92583;-61
2023/09/08 09:10:31;;;;;;;11.82;6.60;;;;;;;;;;5012235;27;93225;-61
2023/09/08 09:12:58;;;;;;;12.93;6.57;;;;;;;;;;5015420;27;93802;-61
2023/09/08 09:15:28;;;;;;;14.55;6.15;;;;;;;;;;5014772;27;92574;-61
2023/09/08 09:18:04;;;;;;;11.65;6.82;;;;;;;;;;5019406;27;93228;-61
2023/09/08 09:20:31;;;;;;;11.55;6.35;;;;;;;;;;5014515;27;94967;-61
2023/09/08 09:22:57;;;;;;;12.77;6.57;;;;;;;;;;5015287;27;93047;-61
2023/09/08 09:25:28;;;;;;;9.82;6.25;;;;;;;;;;5012712;27;92338;-61
2023/09/08 09:27:56;;;;;;;11.73;6.03;;;;;;;;;;5012679;27;92626;-61
2023/09/08 09:30:23;;;;;;;11.88;5.90;;;;;;;;;;5016004;27;93476;-61
2023/09/08 09:33:02;;;;;;;13.45;6.25;;;;;;;;;;5012634;27;93416;-59
2023/09/08 09:35:51;;;;;;;12.65;5.68;;;;;;;;;;5012521;27;92468;-60
2023/09/08 09:38:21;;;;;;;11.27;6.00;;;;;;;;;;5012412;27;94594;-61
2023/09/08 09:40:47;;;;;;;;;;;;;;;;;;5012919;27;93346;-61
2023/09/08 09:43:15;;;;;;;8.70;6.00;;;;;;;;;;5013617;27;118421;-61
2023/09/08 09:45:42;;;;;;;19.23;6.22;;;;;;;;;;5017339;27;94830;-61
2023/09/08 09:48:10;;;;;;;9.73;6.10;;;;;;;;;;5030911;27;94091;-61
2023/09/08 09:50:39;;;;;;;7.45;6.22;;;;;;;;;;5012354;27;93172;-61
2023/09/08 09:53:10;;;;;;;13.93;5.50;;;;;;;;;;5012416;27;93417;-61
2023/09/08 09:55:40;;;;;;;7.00;6.10;;;;;;;;;;5012288;27;92441;-60
2023/09/08 09:58:07;;;;;;;9.70;5.80;;;;;;;;;;5015776;27;93092;-60
2023/09/08 10:00:34;;;;;;;10.35;6.22;;;;;;;;;;5011463;27;93467;-60
2023/09/08 10:03:02;;;;;;;9.45;6.40;;;;;;;;;;5014856;27;91649;-61
2023/09/08 10:05:29;;;;;;;12.10;5.82;;;;;;;;;;5013887;27;93401;-60
2023/09/08 10:07:55;;;;;;;13.13;5.90;;;;;;;;;;5015227;27;93467;-61
2023/09/08 10:10:22;;;;;;;11.38;5.70;;;;;;;;;;5010867;27;94948;-60
2023/09/08 10:12:52;;;;;;;11.07;6.50;;;;;;;;;;5011426;27;93385;-61
2023/09/08 10:15:20;;;;;;;9.32;5.85;;;;;;;;;;5011878;27;92405;-61
2023/09/08 10:17:49;;;;;;;15.15;6.53;;;;;;;;;;5015727;27;93164;-61
2023/09/08 10:20:16;;;;;;;12.88;6.38;;;;;;;;;;5016446;27;94429;-61
2023/09/08 10:22:43;;;;;;;8.30;6.55;;;;;;;;;;5011636;27;92543;-61
2023/09/08 10:25:12;;;;;;;14.73;6.03;;;;;;;;;;5011377;27;94421;-61
2023/09/08 10:27:39;;;;;;;11.00;5.80;;;;;;;;;;5015357;27;93014;-60
2023/09/08 10:30:06;;;;;;;9.55;6.55;;;;;;;;;;5016094;27;94071;-61
2023/09/08 10:32:33;;;;;;;14.27;5.97;;;;;;;;;;5015188;27;93392;-60
2023/09/08 10:35:00;;;;;;;11.32;5.68;;;;;;;;;;5013667;27;95263;-61
2023/09/08 10:37:29;;;;;;;9.82;5.78;;;;;;;;;;5019704;27;95820;-60
2023/09/08 10:39:56;;;;;;;14.55;6.85;;;;;;;;;;5014520;27;93399;-60
2023/09/08 10:42:25;;;;;;;12.32;6.38;;;;;;;;;;5015709;27;92490;-61
2023/09/08 10:45:04;;;;;;;6.32;5.47;;;;;;;;;;5014991;27;93153;-61
2023/09/08 10:47:33;;;;;;;8.57;5.93;;;;;;;;;;5018348;27;94389;-61
2023/09/08 10:50:02;;;;;;;9.40;6.15;;;;;;;;;;5018993;27;92604;-62
2023/09/08 10:52:29;;;;;;;9.23;6.00;;;;;;;;;;5019101;27;92748;-60
2023/09/08 10:54:55;;;;;;;11.05;6.70;;;;;;;;;;5014600;27;92421;-61
2023/09/08 10:57:23;;;;;;;11.07;6.22;;;;;;;;;;5015771;27;93173;-61
2023/09/08 10:59:56;;;;;;;12.40;5.50;;;;;;;;;;5013260;27;95821;-61
2023/09/08 11:02:31;;;;;;;7.30;5.20;;;;;;;;;;5015168;27;92504;-61
2023/09/08 11:04:58;;;;;;;10.25;5.28;;;;;;;;;;5019270;27;93088;-61
2023/09/08 11:07:24;;;;;;;11.13;5.20;;;;;;;;;;5014491;27;93679;-61
2023/09/08 11:09:51;;;;;;;6.15;4.32;;;;;;;;;;5014812;27;92415;-61
2023/09/08 11:12:18;;;;;;;8.82;4.78;;;;;;;;;;5022097;27;93042;-61
2023/09/08 11:14:44;;;;;;;8.05;4.32;;;;;;;;;;5014439;27;92803;-61
2023/09/08 11:17:10;;;;;;;7.90;4.82;;;;;;;;;;5018398;27;94118;-60
2023/09/08 11:19:47;;;;;;;12.45;5.00;;;;;;;;;;5014279;27;94052;-60
2023/09/08 11:22:14;;;;;;;9.00;5.07;;;;;;;;;;5015310;27;92536;-61
2023/09/08 11:24:41;;;;;;;6.30;4.20;;;;;;;;;;5016784;27;94943;-61
2023/09/08 11:27:08;;;;;;;6.78;4.63;;;;;;;;;;5014752;27;93601;-61
2023/09/08 11:29:35;;;;;;;7.50;4.38;;;;;;;;;;5014934;27;92693;-61
2023/09/08 11:32:03;;;;;;;6.63;4.97;;;;;;;;;;5012685;27;94368;-60
2023/09/08 11:34:30;;;;;;;11.95;4.93;;;;;;;;;;5016127;27;93409;-61
2023/09/08 11:36:56;;;;;;;7.50;5.05;;;;;;;;;;5018415;27;93122;-61
2023/09/08 11:39:24;;;;;;;14.30;4.63;;;;;;;;;;5022210;27;93688;-61
2023/09/08 11:41:51;;;;;;;7.65;5.18;;;;;;;;;;5014888;27;91788;-60
2023/09/08 11:44:18;;;;;;;13.05;6.82;;;;;;;;;;5013132;27;92535;-60
2023/09/08 11:46:45;;;;;;;4.47;4.13;;;;;;;;;;5017785;27;93429;-61
2023/09/08 11:49:12;;;;;;;5.53;4.55;;;;;;;;;;5012197;27;94843;-60
2023/09/08 11:51:38;;;;;;;11.95;4.95;;;;;;;;;;5013602;27;96510;-60
2023/09/08 11:54:04;;;;;;;9.18;5.68;;;;;;;;;;5014050;27;93549;-61
2023/09/08 11:56:32;;;;;;;13.50;5.25;;;;;;;;;;5016839;27;92876;-60
2023/09/08 11:58:58;;;;;;;8.23;4.63;;;;;;;;;;5013366;27;93447;-61
2023/09/08 12:01:25;;;;;;;11.38;5.00;;;;;;;;;;5014322;27;93062;-61
2023/09/08 12:03:52;;;;;;;7.20;3.72;;;;;;;;;;5014064;27;93443;-60
2023/09/08 12:06:19;;;;;;;13.25;12.00;;;;;;;;;;5014040;27;96298;-60
2023/09/08 12:08:46;;;;;;;10.05;4.28;;;;;;;;;;5013764;27;92496;-60
2023/09/08 12:11:12;;;;;;;7.18;4.80;;;;;;;;;;5018004;27;94169;-60
2023/09/08 12:13:38;;;;;;;11.93;4.90;;;;;;;;;;5011560;27;95741;-61
2023/09/08 12:16:18;;;;;;;4.97;4.53;;;;;;;;;;5015873;27;92374;-58
2023/09/08 12:18:45;;;;;;;30.02;27.17;;;;;;;;;;5016539;27;93318;-59
2023/09/08 12:21:11;;;;;;;10.48;9.30;;;;;;;;;;5013105;27;92424;-59
2023/09/08 12:23:49;;;;;;;95.38;87.75;;;;;;;;;;5018671;27;93088;-59
2023/09/08 12:26:16;;;;;;;78.30;71.38;;;;;;;;;;5026110;27;93953;-59
2023/09/08 12:28:43;;;;;;;111.13;101.28;;;;;;;;;;5012458;27;92868;-59
2023/09/08 12:31:09;;;;;;;124.60;112.18;;;;;;;;;;5011524;27;93291;-59
2023/09/08 12:33:36;;;;;;;146.93;133.40;;;;;;;;;;5011934;27;93656;-59
2023/09/08 12:36:15;;;;;;;161.30;146.95;;;;;;;;;;5011555;27;92712;-59
2023/09/08 12:38:46;;;;;;;142.15;129.80;;;;;;;;;;5017396;27;95110;-60
2023/09/08 12:41:12;;;;;;;170.80;154.05;;;;;;;;;;5011739;27;92821;-60
2023/09/08 12:43:38;;;;;;;172.13;157.95;;;;;;;;;;5011050;27;93679;-59
2023/09/08 12:46:05;;;;;;;200.02;181.25;;;;;;;;;;5015419;27;93885;-60
2023/09/08 12:48:31;;;;;;;228.52;209.23;;;;;;;;;;5018181;27;94263;-60
2023/09/08 12:50:58;;;;;;;316.75;291.02;;;;;;;;;;5013935;27;94715;-59
2023/09/08 12:53:24;;;;;;;298.40;274.88;;;;;;;;;;5017749;27;95073;-60
2023/09/08 12:55:51;;;;;;;320.80;292.90;;;;;;;;;;5009800;27;94112;-60
2023/09/08 12:58:17;;;;;;;320.17;294.35;;;;;;;;;;5009403;27;94739;-60
2023/09/08 13:00:44;;;;;;;343.35;312.23;;;;;;;;;;5012358;27;95470;-60
2023/09/08 13:03:10;;;;;;;317.00;291.08;;;;;;;;;;5011209;27;97088;-60
2023/09/08 13:05:38;;;;;;;337.75;307.15;;;;;;;;;;5014401;28;98358;-60
2023/09/08 13:08:05;;;;;;;433.23;398.63;;;;;;;;;;5010965;27;95673;-60
2023/09/08 13:10:31;;;;;;;385.35;351.10;;;;;;;;;;5008102;27;95699;-60
2023/09/08 13:12:58;;;;;;;430.00;394.75;;;;;;;;;;5016287;27;95247;-60
2023/09/08 13:15:24;;;;;;;349.42;319.75;;;;;;;;;;5013303;27;95247;-60
2023/09/08 13:17:51;;;;;;;306.15;280.42;;;;;;;;;;5012453;27;95678;-60
2023/09/08 13:20:17;;;;;;;362.10;329.90;;;;;;;;;;5016445;27;95109;-61
2023/09/08 13:22:44;;;;;;;346.30;313.58;;;;;;;;;;5014272;27;96051;-61
2023/09/08 13:25:11;;;;;;;345.20;314.70;;;;;;;;;;5012610;27;95846;-60
2023/09/08 13:27:37;;;;;;;410.60;373.00;;;;;;;;;;5006124;27;97460;-60
2023/09/08 13:30:10;;;;;;;383.63;348.67;;;;;;;;;;5013249;27;98898;-60
2023/09/08 13:32:37;;;;;;;288.85;260.58;;;;;;;;;;5008076;27;95843;-61
2023/09/08 13:35:04;;;;;;;299.83;273.27;;;;;;;;;;5009678;27;95409;-60
2023/09/08 13:37:30;;;;;;;359.15;325.42;;;;;;;;;;5011587;27;95733;-61
2023/09/08 13:39:57;;;;;;;310.97;282.90;;;;;;;;;;5012532;27;96169;-61
2023/09/08 13:42:23;;;;;;;302.20;274.83;;;;;;;;;;5008552;27;94950;-60
2023/09/08 13:44:50;;;;;;;415.47;378.17;;;;;;;;;;5011977;27;95741;-61
2023/09/08 13:47:16;;;;;;;382.05;348.92;;;;;;;;;;5012314;27;95240;-60
2023/09/08 13:49:43;;;;;;;357.55;324.98;;;;;;;;;;5007900;27;96805;-61
2023/09/08 13:52:10;;;;;;;392.27;357.30;;;;;;;;;;5006445;27;98375;-61
2023/09/08 13:54:41;;;;;;;385.13;348.98;;;;;;;;;;5008515;27;95345;-61
2023/09/08 13:57:10;;;;;;;398.90;363.92;;;;;;;;;;5012411;27;95715;-61
2023/09/08 13:59:39;;;;;;;392.73;357.65;;;;;;;;;;5016827;27;95935;-61
2023/09/08 14:02:08;;;;;;;443.73;402.55;;;;;;;;;;5007326;27;95073;-61
2023/09/08 14:04:55;;;;;;;444.27;404.17;;;;;;;;;;5016416;27;95406;-61
2023/09/08 14:07:28;;;;;;;461.63;419.52;;;;;;;;;;5015104;27;96951;-61
2023/09/08 14:09:57;;;;;;;420.42;382.92;;;;;;;;;;5016529;27;95613;-61
2023/09/08 14:12:27;;;;;;;439.17;400.88;;;;;;;;;;5012208;27;95673;-60
2023/09/08 14:15:01;;;;;;;448.13;406.58;;;;;;;;;;5014818;27;95649;-61
2023/09/08 14:17:27;;;;;;;436.95;397.42;;;;;;;;;;5018144;27;98074;-61
2023/09/08 14:19:53;;;;;;;476.30;431.17;;;;;;;;;;5011390;27;96718;-60